Terminal Aerodrome Forecast
Issued by NWS Medford, OR

Home | Current Version | Previous Version | Text Only | Print | Product List | Glossary On
Versions: 1 2 3 4 5 6 7 8 9 10 11 12 13 14 15 16 17
097
FTUS46 KMFR 190544
TAFMFR
TAF
KMFR 190544Z 1906/2006 33010KT P6SM SKC
     FM191500 00000KT 3SM FU SKC
     FM192300 33010KT 5SM FU SKC
     FM200000 34012G18KT P6SM SKC
     FM200400 34005KT P6SM SKC=

USA.gov is the U.S. government's official web portal to all federal, state and local government web resources and services.